PWSweather.com
Personal Weather Stations
Station Observations
KJ4AJP
Beautiful Downtown Gardner, Martin, TN 38237

Beautiful Downtown GardnerMartin, TN 38237

Lat: 36.358, Lon: -88.8994

Elevation: 384.3

Station Type: TP1080WC

http://weather.mambm.com/

High Low Average
Temperature 95.9°F35.5°C 67.6°F19.8°C 78.9°F26.1°C
Dew Point 79.5°F26.4°C 67.4°F19.7°C 73.4°F23.0°C
Winds 9.8 mph 15.8 kmh Calm Calm 1.0 mph S1.6 kmh S
Wind Gusts 18.3 mph29.5 kmh -- 4.0 mph6.4 kmh
Humidity 99% 54% 85%
Pressure 29.92 in1013.2 mb 29.80 in1009.1 mb -
Precipitation 0.30 in7.6 mm - -
Hour Temp Dew Point Humidity Winds Wind Gusts Pressure Precip Precip Rate Daily Precip Total
12:00 AM 73.9°F23.3°C 71.5°F21.9°C 92% 1.6 mph SE2.6 kmh SE 3.1 mph5.0 kmh 29.89 in1012.2 mb 0.00 in0.0 mm 0.00 in0.0 mm 0.00 in0.0 mm
12:15 AM 73.6°F23.1°C 71.5°F21.9°C 93% Calm Calm 3.1 mph5.0 kmh 29.89 in1012.2 mb 0.00 in0.0 mm 0.00 in0.0 mm 0.00 in0.0 mm
12:30 AM 73.2°F22.9°C 71.1°F21.7°C 93% Calm Calm 1.6 mph2.6 kmh 29.88 in1011.9 mb 0.00 in0.0 mm 0.00 in0.0 mm 0.00 in0.0 mm
12:45 AM 72.9°F22.7°C 71.4°F21.9°C 95% 0.7 mph SE1.1 kmh SE 2.2 mph3.5 kmh 29.89 in1012.2 mb 0.00 in0.0 mm 0.00 in0.0 mm 0.00 in0.0 mm
01:00 AM 72.3°F22.4°C 70.8°F21.6°C 95% 1.6 mph SSE2.6 kmh SSE 3.1 mph5.0 kmh 29.89 in1012.2 mb 0.00 in0.0 mm 0.00 in0.0 mm 0.00 in0.0 mm
01:15 AM 72.0°F22.2°C 70.8°F21.6°C 96% 1.6 mph S2.6 kmh S 3.1 mph5.0 kmh 29.88 in1011.9 mb 0.00 in0.0 mm 0.00 in0.0 mm 0.00 in0.0 mm
01:30 AM 71.8°F22.1°C 70.9°F21.6°C 97% Calm Calm 2.2 mph3.5 kmh 29.88 in1011.9 mb 0.00 in0.0 mm 0.00 in0.0 mm 0.00 in0.0 mm
01:45 AM 71.4°F21.9°C 70.9°F21.6°C 98% 0.7 mph SSW1.1 kmh SSW 3.1 mph5.0 kmh 29.88 in1011.9 mb 0.00 in0.0 mm 0.00 in0.0 mm 0.00 in0.0 mm
02:00 AM 72.0°F22.2°C 71.7°F22.1°C 99% 1.6 mph WNW2.6 kmh WNW 5.4 mph8.7 kmh 29.90 in1012.5 mb 0.00 in0.0 mm 0.00 in0.0 mm 0.00 in0.0 mm
02:15 AM 72.9°F22.7°C 72.6°F22.6°C 99% Calm Calm 4.5 mph7.2 kmh 29.90 in1012.5 mb 0.00 in0.0 mm 0.00 in0.0 mm 0.00 in0.0 mm
02:30 AM 72.9°F22.7°C 72.3°F22.4°C 98% Calm Calm 2.2 mph3.5 kmh 29.90 in1012.5 mb 0.00 in0.0 mm 0.00 in0.0 mm 0.00 in0.0 mm
02:45 AM 72.5°F22.5°C 71.9°F22.2°C 98% Calm Calm 2.2 mph3.5 kmh 29.90 in1012.5 mb 0.00 in0.0 mm 0.00 in0.0 mm 0.00 in0.0 mm
03:00 AM 72.0°F22.2°C 71.4°F21.9°C 98% Calm Calm 1.6 mph2.6 kmh 29.90 in1012.5 mb 0.00 in0.0 mm 0.00 in0.0 mm 0.00 in0.0 mm
03:15 AM 71.2°F21.8°C 71.0°F21.7°C 99% Calm Calm 0.7 mph1.1 kmh 29.90 in1012.5 mb 0.00 in0.0 mm 0.00 in0.0 mm 0.00 in0.0 mm
03:30 AM 70.7°F21.5°C 70.4°F21.3°C 99% Calm Calm 0.7 mph1.1 kmh 29.89 in1012.2 mb 0.00 in0.0 mm 0.00 in0.0 mm 0.00 in0.0 mm
03:45 AM 70.0°F21.1°C 69.7°F20.9°C 99% Calm Calm 0.7 mph1.1 kmh 29.88 in1011.9 mb 0.00 in0.0 mm 0.00 in0.0 mm 0.00 in0.0 mm
04:00 AM 69.4°F20.8°C 69.2°F20.7°C 99% Calm Calm 1.6 mph2.6 kmh 29.86 in1011.2 mb 0.00 in0.0 mm 0.00 in0.0 mm 0.00 in0.0 mm
04:15 AM 68.9°F20.5°C 68.6°F20.3°C 99% Calm Calm 0.7 mph1.1 kmh 29.86 in1011.2 mb 0.00 in0.0 mm 0.00 in0.0 mm 0.00 in0.0 mm
04:30 AM 68.7°F20.4°C 68.5°F20.3°C 99% Calm Calm 0.7 mph1.1 kmh 29.87 in1011.5 mb 0.00 in0.0 mm 0.00 in0.0 mm 0.00 in0.0 mm
04:45 AM 68.4°F20.2°C 68.1°F20.1°C 99% Calm Calm 1.6 mph2.6 kmh 29.87 in1011.5 mb 0.00 in0.0 mm 0.00 in0.0 mm 0.00 in0.0 mm
05:00 AM 67.8°F19.9°C 67.6°F19.8°C 99% Calm Calm 3.1 mph5.0 kmh 29.87 in1011.5 mb 0.00 in0.0 mm 0.00 in0.0 mm 0.00 in0.0 mm
05:15 AM 67.6°F19.8°C 67.4°F19.7°C 99% 0.7 mph SSE1.1 kmh SSE 2.2 mph3.5 kmh 29.88 in1011.9 mb 0.00 in0.0 mm 0.00 in0.0 mm 0.00 in0.0 mm
05:30 AM 67.8°F19.9°C 67.6°F19.8°C 99% Calm Calm 1.6 mph2.6 kmh 29.89 in1012.2 mb 0.00 in0.0 mm 0.00 in0.0 mm 0.00 in0.0 mm
05:45 AM 68.2°F20.1°C 67.9°F19.9°C 99% 0.7 mph SE1.1 kmh SE 2.2 mph3.5 kmh 29.89 in1012.2 mb 0.00 in0.0 mm 0.00 in0.0 mm 0.00 in0.0 mm
06:00 AM 68.9°F20.5°C 68.6°F20.3°C 99% 1.6 mph S2.6 kmh S 3.8 mph6.1 kmh 29.89 in1012.2 mb 0.00 in0.0 mm 0.00 in0.0 mm 0.00 in0.0 mm
06:15 AM 70.0°F21.1°C 69.7°F20.9°C 99% 0.7 mph S1.1 kmh S 3.8 mph6.1 kmh 29.89 in1012.2 mb 0.00 in0.0 mm 0.00 in0.0 mm 0.00 in0.0 mm
06:30 AM 71.4°F21.9°C 71.2°F21.8°C 99% 2.2 mph SSW3.5 kmh SSW 4.5 mph7.2 kmh 29.90 in1012.5 mb 0.00 in0.0 mm 0.00 in0.0 mm 0.00 in0.0 mm
06:45 AM 73.0°F22.8°C 72.8°F22.7°C 99% 3.8 mph S6.1 kmh S 5.4 mph8.7 kmh 29.90 in1012.5 mb 0.00 in0.0 mm 0.00 in0.0 mm 0.00 in0.0 mm
07:00 AM 74.7°F23.7°C 74.4°F23.6°C 99% 1.6 mph S2.6 kmh S 3.8 mph6.1 kmh 29.90 in1012.5 mb 0.00 in0.0 mm 0.00 in0.0 mm 0.00 in0.0 mm
07:15 AM 76.3°F24.6°C 75.1°F23.9°C 96% 3.1 mph S5.0 kmh S 5.4 mph8.7 kmh 29.90 in1012.5 mb 0.00 in0.0 mm 0.00 in0.0 mm 0.00 in0.0 mm
07:30 AM 77.9°F25.5°C 75.1°F23.9°C 91% Calm Calm 6.0 mph9.7 kmh 29.90 in1012.5 mb 0.00 in0.0 mm 0.00 in0.0 mm 0.00 in0.0 mm
07:45 AM 79.0°F26.1°C 75.5°F24.2°C 89% 1.6 mph SSW2.6 kmh SSW 4.5 mph7.2 kmh 29.90 in1012.5 mb 0.00 in0.0 mm 0.00 in0.0 mm 0.00 in0.0 mm
08:00 AM 80.1°F26.7°C 75.9°F24.4°C 87% 2.2 mph SW3.5 kmh SW 4.5 mph7.2 kmh 29.91 in1012.9 mb 0.00 in0.0 mm 0.00 in0.0 mm 0.00 in0.0 mm
08:15 AM 81.1°F27.3°C 75.9°F24.4°C 84% 3.8 mph SW6.1 kmh SW 6.9 mph11.1 kmh 29.91 in1012.9 mb 0.00 in0.0 mm 0.00 in0.0 mm 0.00 in0.0 mm
08:30 AM 82.0°F27.8°C 76.4°F24.7°C 83% 2.2 mph SSW3.5 kmh SSW 6.0 mph9.7 kmh 29.90 in1012.5 mb 0.00 in0.0 mm 0.00 in0.0 mm 0.00 in0.0 mm
08:45 AM 83.7°F28.7°C 77.3°F25.2°C 81% 2.2 mph SW3.5 kmh SW 5.4 mph8.7 kmh 29.90 in1012.5 mb 0.00 in0.0 mm 0.00 in0.0 mm 0.00 in0.0 mm
09:00 AM 86.2°F30.1°C 78.2°F25.7°C 77% 3.1 mph W5.0 kmh W 5.4 mph8.7 kmh 29.91 in1012.9 mb 0.00 in0.0 mm 0.00 in0.0 mm 0.00 in0.0 mm
09:15 AM 87.8°F31.0°C 79.4°F26.3°C 76% 1.6 mph SW2.6 kmh SW 3.8 mph6.1 kmh 29.91 in1012.9 mb 0.00 in0.0 mm 0.00 in0.0 mm 0.00 in0.0 mm
09:30 AM 89.6°F32.0°C 79.5°F26.4°C 72% Calm Calm 5.4 mph8.7 kmh 29.91 in1012.9 mb 0.00 in0.0 mm 0.00 in0.0 mm 0.00 in0.0 mm
09:45 AM 90.9°F32.7°C 78.9°F26.1°C 68% 3.1 mph NNW5.0 kmh NNW 7.6 mph12.2 kmh 29.91 in1012.9 mb 0.00 in0.0 mm 0.00 in0.0 mm 0.00 in0.0 mm
10:00 AM 91.6°F33.1°C 79.2°F26.2°C 67% 2.2 mph N3.5 kmh N 6.9 mph11.1 kmh 29.91 in1012.9 mb 0.00 in0.0 mm 0.00 in0.0 mm 0.00 in0.0 mm
10:15 AM 91.6°F33.1°C 78.2°F25.7°C 65% 0.7 mph NW1.1 kmh NW 5.4 mph8.7 kmh 29.91 in1012.9 mb 0.00 in0.0 mm 0.00 in0.0 mm 0.00 in0.0 mm
10:30 AM 92.3°F33.5°C 78.4°F25.8°C 64% 0.7 mph NNW1.1 kmh NNW 6.9 mph11.1 kmh 29.92 in1013.2 mb 0.00 in0.0 mm 0.00 in0.0 mm 0.00 in0.0 mm
10:45 AM 92.1°F33.4°C 77.8°F25.4°C 63% 1.6 mph N2.6 kmh N 9.8 mph15.8 kmh 29.92 in1013.2 mb 0.00 in0.0 mm 0.00 in0.0 mm 0.00 in0.0 mm
11:00 AM 92.3°F33.5°C 78.4°F25.8°C 64% 0.7 mph N1.1 kmh N 7.6 mph12.2 kmh 29.92 in1013.2 mb 0.00 in0.0 mm 0.00 in0.0 mm 0.00 in0.0 mm
11:15 AM 92.1°F33.4°C 78.3°F25.7°C 64% 3.1 mph N5.0 kmh N 9.8 mph15.8 kmh 29.91 in1012.9 mb 0.00 in0.0 mm 0.00 in0.0 mm 0.00 in0.0 mm
11:30 AM 91.9°F33.3°C 79.0°F26.1°C 66% 2.2 mph NE3.5 kmh NE 6.0 mph9.7 kmh 29.91 in1012.9 mb 0.00 in0.0 mm 0.00 in0.0 mm 0.00 in0.0 mm
11:45 AM 91.9°F33.3°C 78.1°F25.6°C 64% 3.8 mph ENE6.1 kmh ENE 7.6 mph12.2 kmh 29.91 in1012.9 mb 0.00 in0.0 mm 0.00 in0.0 mm 0.00 in0.0 mm
12:00 PM 92.8°F33.8°C 79.0°F26.1°C 64% 0.7 mph N1.1 kmh N 6.0 mph9.7 kmh 29.91 in1012.9 mb 0.00 in0.0 mm 0.00 in0.0 mm 0.00 in0.0 mm
12:15 PM 93.0°F33.9°C 79.1°F26.2°C 64% 0.7 mph SW1.1 kmh SW 6.0 mph9.7 kmh 29.89 in1012.2 mb 0.00 in0.0 mm 0.00 in0.0 mm 0.00 in0.0 mm
12:30 PM 93.2°F34.0°C 77.8°F25.4°C 61% 0.7 mph N1.1 kmh N 4.5 mph7.2 kmh 29.89 in1012.2 mb 0.00 in0.0 mm 0.00 in0.0 mm 0.00 in0.0 mm
12:45 PM 94.1°F34.5°C 79.2°F26.2°C 62% 0.7 mph WNW1.1 kmh WNW 7.6 mph12.2 kmh 29.88 in1011.9 mb 0.00 in0.0 mm 0.00 in0.0 mm 0.00 in0.0 mm
01:00 PM 94.8°F34.9°C 78.9°F26.1°C 60% 1.6 mph ENE2.6 kmh ENE 3.8 mph6.1 kmh 29.88 in1011.9 mb 0.00 in0.0 mm 0.00 in0.0 mm 0.00 in0.0 mm
01:15 PM 95.0°F35.0°C 79.5°F26.4°C 61% 1.6 mph ENE2.6 kmh ENE 5.4 mph8.7 kmh 29.87 in1011.5 mb 0.00 in0.0 mm 0.00 in0.0 mm 0.00 in0.0 mm
01:30 PM 95.9°F35.5°C 79.4°F26.3°C 59% 0.7 mph N1.1 kmh N 9.2 mph14.8 kmh 29.87 in1011.5 mb 0.00 in0.0 mm 0.00 in0.0 mm 0.00 in0.0 mm
01:45 PM 95.7°F35.4°C 78.1°F25.6°C 57% 0.7 mph N1.1 kmh N 5.4 mph8.7 kmh 29.86 in1011.2 mb 0.00 in0.0 mm 0.00 in0.0 mm 0.00 in0.0 mm
02:00 PM 94.1°F34.5°C 78.2°F25.7°C 60% 1.6 mph NNW2.6 kmh NNW 4.5 mph7.2 kmh 29.86 in1011.2 mb 0.00 in0.0 mm 0.00 in0.0 mm 0.00 in0.0 mm
02:15 PM 93.4°F34.1°C 78.0°F25.6°C 61% 0.7 mph E1.1 kmh E 4.5 mph7.2 kmh 29.85 in1010.8 mb 0.00 in0.0 mm 0.00 in0.0 mm 0.00 in0.0 mm
02:30 PM 93.6°F34.2°C 77.7°F25.4°C 60% Calm Calm 3.8 mph6.1 kmh 29.84 in1010.5 mb 0.00 in0.0 mm 0.00 in0.0 mm 0.00 in0.0 mm
02:45 PM 94.8°F34.9°C 76.2°F24.6°C 55% 4.5 mph N7.2 kmh N 10.7 mph17.2 kmh 29.83 in1010.2 mb 0.00 in0.0 mm 0.00 in0.0 mm 0.00 in0.0 mm
03:00 PM 94.3°F34.6°C 77.3°F25.2°C 58% 0.7 mph NW1.1 kmh NW 6.9 mph11.1 kmh 29.82 in1009.8 mb 0.00 in0.0 mm 0.00 in0.0 mm 0.00 in0.0 mm
03:15 PM 95.0°F35.0°C 75.8°F24.3°C 54% 1.6 mph NNW2.6 kmh NNW 6.0 mph9.7 kmh 29.82 in1009.8 mb 0.00 in0.0 mm 0.00 in0.0 mm 0.00 in0.0 mm
03:30 PM 93.7°F34.3°C 76.3°F24.6°C 57% 0.7 mph NW1.1 kmh NW 3.1 mph5.0 kmh 29.82 in1009.8 mb 0.00 in0.0 mm 0.00 in0.0 mm 0.00 in0.0 mm
03:45 PM 91.9°F33.3°C 75.1°F23.9°C 58% 0.7 mph N1.1 kmh N 2.2 mph3.5 kmh 29.82 in1009.8 mb 0.00 in0.0 mm 0.00 in0.0 mm 0.00 in0.0 mm
04:00 PM 90.3°F32.4°C 75.1°F23.9°C 61% 2.2 mph E3.5 kmh E 4.5 mph7.2 kmh 29.82 in1009.8 mb 0.00 in0.0 mm 0.00 in0.0 mm 0.00 in0.0 mm
04:15 PM 89.1°F31.7°C 74.9°F23.8°C 63% Calm Calm 6.0 mph9.7 kmh 29.82 in1009.8 mb 0.00 in0.0 mm 0.00 in0.0 mm 0.00 in0.0 mm
04:30 PM 88.0°F31.1°C 75.3°F24.1°C 66% 2.2 mph SE3.5 kmh SE 4.5 mph7.2 kmh 29.82 in1009.8 mb 0.05 in1.3 mm 0.20 in5.1 mm 0.05 in1.3 mm
04:45 PM 82.0°F27.8°C 72.2°F22.3°C 72% 9.8 mph S15.8 kmh S 18.3 mph29.5 kmh 29.83 in1010.2 mb 0.19 in4.8 mm 0.56 in14.2 mm 0.19 in4.8 mm
05:00 PM 76.5°F24.7°C 70.6°F21.4°C 82% 3.1 mph S5.0 kmh S 13.6 mph21.9 kmh 29.83 in1010.2 mb 0.27 in6.9 mm 0.11 in2.8 mm 0.27 in6.9 mm
05:15 PM 74.1°F23.4°C 70.0°F21.1°C 87% 2.2 mph SSE3.5 kmh SSE 12.1 mph19.5 kmh 29.82 in1009.8 mb 0.28 in7.1 mm 0.04 in1.0 mm 0.28 in7.1 mm
05:30 PM 73.6°F23.1°C 70.8°F21.6°C 91% Calm Calm 3.8 mph6.1 kmh 29.82 in1009.8 mb 0.25 in6.4 mm 0.00 in0.0 mm 0.30 in7.6 mm
05:45 PM 73.2°F22.9°C 71.1°F21.7°C 93% Calm Calm 0.7 mph1.1 kmh 29.81 in1009.5 mb 0.11 in2.8 mm 0.00 in0.0 mm 0.30 in7.6 mm
06:00 PM 72.9°F22.7°C 71.4°F21.9°C 95% Calm Calm 1.6 mph2.6 kmh 29.81 in1009.5 mb 0.02 in0.5 mm 0.00 in0.0 mm 0.30 in7.6 mm
06:15 PM 72.9°F22.7°C 72.0°F22.2°C 97% Calm Calm 1.6 mph2.6 kmh 29.80 in1009.1 mb 0.01 in0.3 mm 0.00 in0.0 mm 0.30 in7.6 mm
06:30 PM 72.7°F22.6°C 72.4°F22.4°C 99% 1.6 mph N2.6 kmh N 3.1 mph5.0 kmh 29.82 in1009.8 mb 0.00 in0.0 mm 0.00 in0.0 mm 0.30 in7.6 mm
06:45 PM 72.5°F22.5°C 72.2°F22.3°C 99% Calm Calm 3.8 mph6.1 kmh 29.84 in1010.5 mb 0.00 in0.0 mm 0.00 in0.0 mm 0.30 in7.6 mm
07:00 PM 72.3°F22.4°C 72.1°F22.3°C 99% Calm Calm 1.6 mph2.6 kmh 29.82 in1009.8 mb 0.00 in0.0 mm 0.00 in0.0 mm 0.30 in7.6 mm
07:15 PM 72.3°F22.4°C 72.1°F22.3°C 99% Calm Calm 1.6 mph2.6 kmh 29.83 in1010.2 mb 0.00 in0.0 mm 0.00 in0.0 mm 0.30 in7.6 mm
07:30 PM 72.0°F22.2°C 71.7°F22.1°C 99% 0.7 mph N1.1 kmh N 2.2 mph3.5 kmh 29.83 in1010.2 mb 0.00 in0.0 mm 0.00 in0.0 mm 0.30 in7.6 mm
07:45 PM 71.8°F22.1°C 71.5°F21.9°C 99% Calm Calm 2.2 mph3.5 kmh 29.84 in1010.5 mb 0.00 in0.0 mm 0.00 in0.0 mm 0.30 in7.6 mm
08:00 PM 71.6°F22.0°C 71.3°F21.8°C 99% 0.7 mph SE1.1 kmh SE 3.1 mph5.0 kmh 29.85 in1010.8 mb 0.00 in0.0 mm 0.00 in0.0 mm 0.30 in7.6 mm
08:15 PM 71.8°F22.1°C 71.5°F21.9°C 99% 0.7 mph ESE1.1 kmh ESE 3.1 mph5.0 kmh 29.86 in1011.2 mb 0.00 in0.0 mm 0.00 in0.0 mm 0.30 in7.6 mm
08:30 PM 71.6°F22.0°C 71.3°F21.8°C 99% Calm Calm 2.2 mph3.5 kmh 29.86 in1011.2 mb 0.00 in0.0 mm 0.00 in0.0 mm 0.30 in7.6 mm
08:45 PM 71.4°F21.9°C 71.2°F21.8°C 99% Calm Calm 1.6 mph2.6 kmh 29.87 in1011.5 mb 0.00 in0.0 mm 0.00 in0.0 mm 0.30 in7.6 mm
09:00 PM 71.2°F21.8°C 71.0°F21.7°C 99% Calm Calm 1.6 mph2.6 kmh 29.88 in1011.9 mb 0.00 in0.0 mm 0.00 in0.0 mm 0.30 in7.6 mm
09:15 PM 71.1°F21.7°C 70.8°F21.6°C 99% Calm Calm 1.6 mph2.6 kmh 29.88 in1011.9 mb 0.00 in0.0 mm 0.00 in0.0 mm 0.30 in7.6 mm
09:30 PM 70.9°F21.6°C 70.6°F21.4°C 99% 0.7 mph S1.1 kmh S 1.6 mph2.6 kmh 29.88 in1011.9 mb 0.00 in0.0 mm 0.00 in0.0 mm 0.30 in7.6 mm
09:45 PM 70.9°F21.6°C 70.6°F21.4°C 99% Calm Calm 2.2 mph3.5 kmh 29.87 in1011.5 mb 0.00 in0.0 mm 0.00 in0.0 mm 0.30 in7.6 mm
10:00 PM 70.7°F21.5°C 70.4°F21.3°C 99% Calm Calm 1.6 mph2.6 kmh 29.86 in1011.2 mb 0.00 in0.0 mm 0.00 in0.0 mm 0.30 in7.6 mm
10:15 PM 70.7°F21.5°C 70.4°F21.3°C 99% 0.7 mph SE1.1 kmh SE 3.1 mph5.0 kmh 29.86 in1011.2 mb 0.00 in0.0 mm 0.00 in0.0 mm 0.30 in7.6 mm
10:30 PM 70.7°F21.5°C 70.4°F21.3°C 99% Calm Calm 3.1 mph5.0 kmh 29.86 in1011.2 mb 0.00 in0.0 mm 0.00 in0.0 mm 0.30 in7.6 mm
10:45 PM 70.5°F21.4°C 70.3°F21.3°C 99% Calm Calm 1.6 mph2.6 kmh 29.85 in1010.8 mb 0.00 in0.0 mm 0.00 in0.0 mm 0.30 in7.6 mm
11:00 PM 70.0°F21.1°C 69.7°F20.9°C 99% Calm Calm 2.2 mph3.5 kmh 29.85 in1010.8 mb 0.00 in0.0 mm 0.00 in0.0 mm 0.28 in7.1 mm
11:15 PM 69.6°F20.9°C 69.4°F20.8°C 99% Calm Calm -- 29.84 in1010.5 mb 0.00 in0.0 mm 0.00 in0.0 mm 0.28 in7.1 mm
11:30 PM 69.1°F20.6°C 68.8°F20.4°C 99% Calm Calm 0.7 mph1.1 kmh 29.84 in1010.5 mb 0.00 in0.0 mm 0.00 in0.0 mm 0.28 in7.1 mm
11:45 PM 68.7°F20.4°C 68.5°F20.3°C 99% Calm Calm -- 29.83 in1010.2 mb 0.00 in0.0 mm 0.00 in0.0 mm 0.28 in7.1 mm